Time;durP1;ratioP1;P1;durP2;ratioP2;P2;SDS_P1;SDS_P2;PMS_P1;PMS_P2;Temp;Humidity;BMP_temperature;BMP_pressure;BME280_temperature;BME280_humidity;BME280_pressure;Samples;Min_cycle;Max_cycle;Signal;HPM_P1;HPM_P2
2022/05/29 00:01:05;;;;;;;4.22;1.70;;;10.50;99.90;;;10.53;69.05;100725.06;5030191;28;20197;-70
2022/05/29 00:03:35;;;;;;;5.90;2.10;;;10.50;99.90;;;10.59;68.50;100722.38;5030441;28;20174;-71
2022/05/29 00:06:05;;;;;;;2.13;1.93;;;10.50;99.90;;;10.59;68.60;100722.38;5029630;28;20417;-71
2022/05/29 00:08:39;;;;;;;3.40;1.60;;;10.50;99.90;;;10.50;69.10;100717.38;5012587;28;20949;-71
2022/05/29 00:11:13;;;;;;;7.20;1.42;;;10.50;99.90;;;10.54;68.81;100716.75;5030444;28;20447;-71
2022/05/29 00:13:44;;;;;;;7.35;2.67;;;10.50;99.90;;;10.60;68.72;100718.59;5012898;28;20258;-70
2022/05/29 00:16:13;;;;;;;4.70;1.67;;;10.60;99.90;;;10.36;69.46;100716.50;5031203;28;20431;-71
2022/05/29 00:18:43;;;;;;;6.13;2.00;;;10.40;99.90;;;10.33;69.72;100717.75;5031251;28;20523;-70
2022/05/29 00:21:13;;;;;;;4.28;1.85;;;10.40;99.90;;;10.25;69.82;100709.81;5016880;28;20282;-70
2022/05/29 00:23:44;;;;;;;6.47;2.63;;;10.30;99.90;;;10.21;69.81;100713.16;5012483;28;20373;-70
2022/05/29 00:26:13;;;;;;;3.05;1.55;;;10.30;99.90;;;10.15;70.30;100713.91;5012800;28;20668;-71
2022/05/29 00:28:42;;;;;;;6.68;1.67;;;10.20;99.90;;;10.12;70.37;100706.22;5031120;28;20268;-71
2022/05/29 00:31:12;;;;;;;4.55;1.92;;;10.20;99.90;;;10.04;70.45;100710.78;5030821;28;20305;-71
2022/05/29 00:33:43;;;;;;;4.90;2.25;;;10.10;99.90;;;10.12;69.93;100707.03;5031602;28;20209;-70
2022/05/29 00:36:17;;;;;;;4.05;1.90;;;10.10;99.90;;;10.19;69.60;100710.63;5030240;28;20247;-69
2022/05/29 00:38:49;;;;;;;14.98;2.25;;;10.10;99.90;;;10.12;69.54;100707.03;5030571;28;20189;-70
2022/05/29 00:41:28;;;;;;;3.88;3.38;;;10.10;99.90;;;10.12;69.57;100706.22;5030156;28;20263;-69
2022/05/29 00:44:15;;;;;;;2.40;1.67;;;10.10;99.90;;;10.10;69.16;100708.28;5030007;28;20544;-70
2022/05/29 00:46:49;;;;;;;5.93;1.90;;;10.10;99.90;;;10.02;69.54;100704.72;5030140;28;20201;-70
2022/05/29 00:49:23;;;;;;;6.53;1.23;;;10.10;99.90;;;9.98;69.67;100700.75;5030053;28;20189;-70
2022/05/29 00:52:00;;;;;;;6.15;2.10;;;10.00;99.90;;;10.00;69.40;100706.81;5030142;28;20224;-70
2022/05/29 00:54:34;;;;;;;5.78;2.10;;;10.00;99.90;;;10.01;68.92;100694.97;5030505;28;20219;-70
2022/05/29 00:57:04;;;;;;;8.23;2.42;;;10.00;99.90;;;10.06;68.35;100690.81;5030371;28;20267;-69
2022/05/29 00:59:34;;;;;;;7.05;1.77;;;10.00;99.90;;;10.20;68.04;100696.09;5030672;28;20197;-70
2022/05/29 01:02:05;;;;;;;2.08;1.23;;;10.10;99.90;;;10.17;68.31;100685.66;5032228;28;20244;-70
2022/05/29 01:04:39;;;;;;;2.42;2.15;;;10.10;99.90;;;10.25;67.56;100693.59;5031042;28;20193;-72
2022/05/29 01:07:14;;;;;;;5.57;1.40;;;10.20;99.90;;;10.27;67.54;100696.06;5023931;28;20251;-70
2022/05/29 01:09:47;;;;;;;1.58;1.45;;;10.20;99.90;;;10.32;67.00;100690.88;4996305;28;20194;-71
2022/05/29 01:12:37;;;;;;;5.65;1.45;;;10.30;99.90;;;10.32;67.09;100682.78;5009807;28;20759;-71
2022/05/29 01:15:22;;;;;;;3.60;1.47;;;10.30;99.90;;;10.35;67.06;100688.63;4992745;28;20190;-72
2022/05/29 01:18:06;;;;;;;3.47;1.70;;;10.20;99.70;;;10.26;67.45;100680.91;5022750;28;20914;-70
2022/05/29 01:21:11;;;;;;;6.15;2.08;;;10.20;99.90;;;10.31;67.48;100686.53;5033489;28;20266;-72
2022/05/29 01:24:26;;;;;;;4.47;2.00;;;10.30;99.90;;;10.39;67.15;100678.22;5015392;28;20533;-70
2022/05/29 01:27:33;;;;;;;2.20;1.80;;;10.30;99.90;;;10.20;68.04;100677.16;5033016;28;20343;-70
2022/05/29 01:30:11;;;;;;;4.00;2.03;;;10.20;99.90;;;10.25;67.61;100666.56;5010132;28;20263;-70
2022/05/29 01:32:47;;;;;;;6.60;2.40;;;10.20;99.90;;;10.19;68.15;100671.94;5033122;28;20603;-70
2022/05/29 01:35:33;;;;;;;2.83;1.38;;;10.20;99.90;;;10.11;68.57;100680.22;5033156;28;20174;-70
2022/05/29 01:38:09;;;;;;;2.35;1.60;;;10.10;99.90;;;10.03;68.75;100675.81;5015667;28;20182;-70
2022/05/29 01:40:43;;;;;;;2.10;1.42;;;10.10;99.90;;;10.08;68.55;100672.50;5013641;28;20228;-70
2022/05/29 01:43:23;;;;;;;3.60;1.60;;;10.10;99.90;;;10.08;68.60;100675.19;5030604;28;20246;-70
2022/05/29 01:46:02;;;;;;;3.67;1.65;;;10.10;99.90;;;10.02;68.82;100671.47;5032718;28;20244;-70
2022/05/29 01:48:52;;;;;;;3.42;1.55;;;10.00;99.90;;;9.93;69.32;100670.78;5033250;28;20612;-70
2022/05/29 01:51:26;;;;;;;7.95;2.50;;;9.90;99.90;;;10.00;69.31;100677.06;5017600;28;20221;-70
2022/05/29 01:54:05;;;;;;;2.33;1.70;;;10.00;99.90;;;9.97;69.29;100673.94;4996158;28;20248;-70
2022/05/29 01:56:40;;;;;;;2.78;1.20;;;9.90;99.90;;;10.01;69.74;100676.03;5014591;28;20193;-70
2022/05/29 01:59:14;;;;;;;5.28;2.50;;;9.90;99.90;;;10.11;68.87;100670.25;5013146;28;20193;-70
2022/05/29 02:01:52;;;;;;;9.07;2.00;;;10.00;99.90;;;10.10;69.28;100673.13;5025798;28;20259;-70
2022/05/29 02:04:27;;;;;;;4.82;1.35;;;10.00;99.90;;;10.12;69.34;100671.88;5012943;28;20524;-73
2022/05/29 02:10:02;;;;;;;5.15;2.33;;;10.10;99.90;;;10.18;68.93;100673.81;5011345;28;20228;-70
2022/05/29 02:12:32;;;;;;;1.98;1.48;;;10.10;99.90;;;10.13;69.08;100661.91;5012462;28;20201;-71
2022/05/29 02:15:08;;;;;;;2.13;1.85;;;10.10;99.90;;;10.14;69.22;100663.56;5011798;28;20241;-71
2022/05/29 02:17:45;;;;;;;1.98;1.60;;;10.10;99.90;;;10.21;69.16;100659.06;5012625;28;20182;-70
2022/05/29 02:20:21;;;;;;;5.30;1.30;;;10.10;99.90;;;10.17;69.30;100655.91;5012681;28;20557;-70
2022/05/29 02:22:57;;;;;;;5.32;1.30;;;10.10;99.90;;;10.08;69.51;100664.38;5012378;28;20538;-70
2022/05/29 02:25:30;;;;;;;3.60;1.83;;;10.10;99.90;;;10.35;68.46;100660.75;5014034;28;20241;-71
2022/05/29 02:28:06;;;;;;;4.00;1.20;;;10.20;99.90;;;10.21;68.47;100648.25;5031766;28;20186;-70
2022/05/29 02:30:46;;;;;;;6.32;1.55;;;10.10;99.90;;;10.35;68.01;100658.88;5032849;28;20188;-70
2022/05/29 02:33:25;;;;;;;2.25;1.45;;;10.30;99.90;;;10.38;68.23;100666.56;5033823;28;20199;-70
2022/05/29 02:39:02;;;;;;;5.50;1.90;;;10.20;99.90;;;10.30;68.25;100657.81;5031798;28;20211;-70
2022/05/29 02:41:47;;;;;;;3.30;1.88;;;10.20;99.90;;;10.43;68.40;100652.41;5014418;28;20209;-70
2022/05/29 02:44:31;;;;;;;2.63;1.30;;;10.30;99.90;;;10.31;68.39;100654.09;5032047;28;20177;-71
2022/05/29 02:47:26;;;;;;;5.03;1.38;;;10.30;99.90;;;10.43;67.77;100660.53;5031336;28;20201;-71
2022/05/29 02:50:19;;;;;;;4.80;2.50;;;10.30;99.90;;;10.40;68.36;100658.25;5031820;28;20197;-69
2022/05/29 02:52:52;;;;;;;5.03;1.58;;;10.30;99.90;;;10.40;68.11;100655.56;5018355;28;20561;-70
2022/05/29 02:55:23;;;;;;;4.25;1.75;;;10.30;99.90;;;10.36;67.60;100654.31;5031906;28;20194;-70
2022/05/29 02:57:57;;;;;;;4.00;1.90;;;10.30;99.90;;;10.34;67.48;100659.06;5031952;28;20212;-70
2022/05/29 03:00:32;;;;;;;5.90;3.15;;;10.30;99.90;;;10.27;67.50;100655.50;5031751;28;20656;-70
2022/05/29 03:03:24;;;;;;;7.22;2.67;;;10.30;99.90;;;10.33;67.44;100658.22;5032015;28;20177;-69
2022/05/29 03:06:21;;;;;;;2.45;1.77;;;10.20;99.90;;;10.24;67.91;100645.94;5014938;28;20217;-70
2022/05/29 03:09:14;;;;;;;4.63;2.28;;;10.20;99.90;;;10.29;67.46;100650.75;5031731;28;20633;-71
2022/05/29 03:11:47;;;;;;;2.92;1.70;;;10.30;99.90;;;10.26;67.87;100645.75;5032531;28;20657;-70
2022/05/29 03:14:33;;;;;;;2.70;1.92;;;10.20;99.90;;;10.28;67.78;100649.91;5031915;28;20177;-71
2022/05/29 03:17:16;;;;;;;5.07;2.22;;;10.20;99.90;;;10.32;67.76;100655.72;5031601;28;20178;-71
2022/05/29 03:19:57;;;;;;;3.90;1.73;;;10.20;99.90;;;10.29;67.83;100646.16;4995210;28;20268;-70
2022/05/29 03:22:44;;;;;;;2.80;2.03;;;10.20;99.90;;;10.35;67.78;100653.47;5011744;28;20205;-71
2022/05/29 03:25:21;;;;;;;9.65;2.42;;;10.30;99.90;;;10.41;67.92;100652.63;5012125;28;20182;-70
2022/05/29 03:27:55;;;;;;;2.78;1.40;;;10.30;99.90;;;10.42;67.95;100656.16;5000956;28;20243;-70
2022/05/29 03:30:32;;;;;;;6.63;1.55;;;10.20;99.90;;;10.41;68.06;100657.19;5031153;28;20189;-70
2022/05/29 03:33:06;;;;;;;3.05;1.92;;;10.30;99.90;;;10.42;67.94;100650.75;5031310;28;20177;-70
2022/05/29 03:35:45;;;;;;;10.20;1.50;;;10.30;99.90;;;10.48;67.90;100654.50;5031182;28;20192;-70
2022/05/29 03:38:15;;;;;;;4.28;1.95;;;10.30;99.90;;;10.40;68.14;100652.84;5031153;28;20181;-70
2022/05/29 03:40:51;;;;;;;4.50;2.15;;;10.30;99.90;;;10.49;68.20;100661.59;5030550;28;20263;-70
2022/05/29 03:43:20;;;;;;;2.85;2.08;;;10.40;99.90;;;10.51;67.82;100656.78;5031787;28;20304;-70
2022/05/29 03:45:50;;;;;;;3.00;2.75;;;10.40;99.90;;;10.52;68.01;100655.75;5032734;28;20213;-70
2022/05/29 03:48:19;;;;;;;5.28;1.67;;;10.40;99.90;;;10.51;68.43;100649.50;5031709;28;20190;-70
2022/05/29 03:50:47;;;;;;;4.55;1.70;;;10.40;99.90;;;10.61;68.07;100660.75;5031981;28;20300;-70
2022/05/29 03:53:18;;;;;;;4.47;2.40;;;10.50;99.90;;;10.55;68.02;100658.06;5013548;28;20220;-71
2022/05/29 03:55:47;;;;;;;6.05;1.45;;;10.40;99.90;;;10.62;68.13;100657.00;5031293;28;20204;-70
2022/05/29 03:58:15;;;;;;;3.40;1.60;;;10.50;99.90;;;10.53;68.15;100657.41;5031066;28;20264;-70
2022/05/29 04:00:44;;;;;;;6.93;1.67;;;10.40;99.90;;;10.51;68.41;100644.09;5030746;28;20703;-71
2022/05/29 04:03:13;;;;;;;2.50;1.30;;;10.40;99.90;;;10.65;68.31;100650.38;5030730;28;20405;-70
2022/05/29 04:05:42;;;;;;;3.80;2.00;;;10.50;99.90;;;10.64;67.86;100644.13;5030612;28;20413;-70
2022/05/29 04:13:47;;;;;;;4.70;2.10;;;10.50;99.90;;;10.78;68.18;100634.94;5030953;28;20413;-69
2022/05/29 04:16:15;;;;;;;3.47;1.33;;;10.60;99.90;;;10.90;67.45;100638.66;5030646;28;20902;-70
2022/05/29 04:18:44;;;;;;;2.50;1.90;;;10.70;99.90;;;11.07;67.05;100641.78;5030863;28;20419;-69
2022/05/29 04:21:13;;;;;;;4.60;1.80;;;10.80;99.90;;;10.89;67.35;100647.81;5030588;28;20307;-71
2022/05/29 04:23:43;;;;;;;4.03;1.88;;;10.80;99.90;;;11.03;67.42;100647.81;5030393;28;20227;-70
2022/05/29 04:26:16;;;;;;;2.50;1.70;;;10.80;99.90;;;11.00;67.17;100650.94;5030716;28;20201;-70
2022/05/29 04:28:45;;;;;;;3.00;1.53;;;10.80;99.90;;;10.76;67.95;100647.84;5030275;28;20435;-70
2022/05/29 04:31:13;;;;;;;7.37;2.00;;;10.70;99.90;;;11.05;67.70;100648.41;5031448;28;20608;-70
2022/05/29 04:33:43;;;;;;;7.70;2.43;;;10.80;99.90;;;10.89;67.78;100647.00;5030969;28;20482;-70
2022/05/29 04:36:12;;;;;;;8.90;2.27;;;10.70;99.90;;;11.17;67.64;100652.16;5030881;28;21254;-70
2022/05/29 04:38:41;;;;;;;2.50;2.07;;;10.90;99.90;;;11.20;67.32;100643.59;5030293;28;20879;-70
2022/05/29 04:41:11;;;;;;;5.23;2.97;;;10.90;99.90;;;11.07;67.23;100643.63;5030277;28;20872;-71
2022/05/29 04:43:41;;;;;;;4.30;1.83;;;10.90;99.90;;;11.25;67.21;100646.50;5030352;28;20424;-70
2022/05/29 04:46:10;;;;;;;12.63;2.17;;;11.00;99.90;;;11.21;67.75;100643.41;5030266;28;20474;-69
2022/05/29 04:48:41;;;;;;;5.83;2.00;;;11.00;99.90;;;11.52;66.82;100641.84;5030402;28;20487;-70
2022/05/29 04:51:10;;;;;;;7.60;2.13;;;11.10;99.90;;;11.49;66.46;100637.69;5012993;28;20446;-71
2022/05/29 04:53:39;;;;;;;3.00;1.87;;;11.20;99.90;;;11.49;66.63;100636.84;5034239;28;20395;-70
2022/05/29 04:56:09;;;;;;;4.53;2.37;;;11.20;99.90;;;11.42;66.86;100636.06;5034045;28;20416;-70
2022/05/29 04:58:40;;;;;;;3.47;1.53;;;11.20;99.90;;;11.52;66.60;100633.72;5016210;28;20459;-70
2022/05/29 05:01:10;;;;;;;6.30;1.87;;;11.30;99.80;;;11.52;66.59;100634.53;5016157;28;20513;-70
2022/05/29 05:03:39;;;;;;;5.50;1.80;;;11.30;99.10;;;11.49;66.61;100634.97;5034501;28;20419;-70
2022/05/29 05:06:08;;;;;;;5.40;1.80;;;11.30;99.50;;;11.51;66.67;100634.75;5033813;28;20516;-71
2022/05/29 05:08:37;;;;;;;3.80;2.60;;;11.30;99.70;;;11.50;66.76;100633.94;5034484;28;20531;-70
2022/05/29 05:11:06;;;;;;;2.63;2.40;;;11.30;99.80;;;11.62;66.61;100642.19;5033896;28;20452;-70
2022/05/29 05:13:35;;;;;;;5.33;2.50;;;11.30;99.90;;;11.46;66.54;100642.69;5034521;28;20413;-71
2022/05/29 05:16:07;;;;;;;8.03;2.07;;;11.30;98.80;;;11.47;67.00;100642.50;5033834;28;20408;-71
2022/05/29 05:18:35;;;;;;;4.03;2.03;;;11.30;99.90;;;11.61;66.86;100637.84;5035142;28;20391;-69
2022/05/29 05:21:07;;;;;;;3.83;2.03;;;11.30;99.90;;;11.80;66.44;100633.41;5022408;28;20498;-70
2022/05/29 05:23:36;;;;;;;6.33;2.30;;;11.50;99.90;;;11.93;65.58;100638.75;5033503;28;20423;-70
2022/05/29 05:26:10;;;;;;;11.43;2.47;;;11.60;98.30;;;11.86;65.73;100635.25;5033607;28;20523;-70
2022/05/29 05:28:40;;;;;;;5.47;1.73;;;11.60;97.30;;;11.67;66.13;100637.81;5033861;28;20447;-70
2022/05/29 05:31:11;;;;;;;6.13;2.40;;;11.50;97.50;;;11.62;66.51;100637.63;5034402;28;20444;-70
2022/05/29 05:33:40;;;;;;;4.27;1.70;;;11.50;98.00;;;11.46;67.33;100632.69;5037077;28;20484;-71
2022/05/29 05:36:10;;;;;;;5.07;2.27;;;11.40;99.90;;;11.63;66.94;100636.56;5036705;28;20975;-71
2022/05/29 05:38:40;;;;;;;5.60;2.53;;;11.40;99.90;;;11.61;66.83;100641.41;5036992;28;20444;-70
2022/05/29 05:41:10;;;;;;;5.40;2.20;;;11.40;99.90;;;11.53;67.15;100633.47;5036640;28;20453;-70
2022/05/29 05:43:41;;;;;;;3.30;2.33;;;11.40;99.90;;;11.72;66.10;100635.31;5017798;28;20901;-70
2022/05/29 05:46:16;;;;;;;8.00;3.00;;;11.50;99.00;;;11.66;66.81;100638.88;5033392;28;20443;-71
2022/05/29 05:48:45;;;;;;;3.80;1.80;;;11.50;99.90;;;11.64;66.93;100637.41;5033999;28;20815;-72
2022/05/29 05:51:16;;;;;;;4.90;2.30;;;11.40;99.70;;;11.77;66.90;100638.22;5015862;28;20474;-70
2022/05/29 05:53:45;;;;;;;4.00;2.30;;;11.50;99.90;;;11.81;66.67;100635.09;5033407;28;20412;-70
2022/05/29 05:56:18;;;;;;;5.70;2.73;;;11.50;99.90;;;11.93;66.49;100636.03;5033178;28;20436;-68
2022/05/29 05:58:47;;;;;;;5.00;2.60;;;11.60;99.90;;;11.86;66.27;100640.69;5033342;28;20428;-72
2022/05/29 06:01:19;;;;;;;6.27;2.50;;;11.60;98.60;;;11.93;66.56;100641.47;5015691;28;20423;-71
2022/05/29 06:03:50;;;;;;;4.40;2.47;;;11.60;99.80;;;12.10;66.26;100643.44;5032608;28;20812;-70
2022/05/29 06:06:19;;;;;;;3.03;1.80;;;11.80;99.90;;;12.13;66.69;100640.31;5033430;28;20408;-70
2022/05/29 06:08:48;;;;;;;3.47;2.27;;;11.80;99.90;;;12.35;65.19;100643.47;5015268;28;20480;-71
2022/05/29 06:11:17;;;;;;;2.97;1.43;;;12.00;97.60;;;12.54;64.45;100642.50;5015339;28;20453;-72
2022/05/29 06:13:47;;;;;;;4.73;2.70;;;12.20;94.00;;;12.68;64.46;100645.13;5033447;28;20455;-72
2022/05/29 06:16:17;;;;;;;2.60;2.20;;;12.20;94.30;;;12.49;64.08;100641.53;5033119;28;20425;-72
2022/05/29 06:18:46;;;;;;;4.37;1.63;;;12.20;92.70;;;12.20;65.10;100634.81;5033034;28;20379;-70
2022/05/29 06:21:16;;;;;;;6.47;2.23;;;12.00;92.90;;;12.41;64.63;100652.63;5033393;28;20451;-73
2022/05/29 06:23:45;;;;;;;4.37;2.10;;;12.10;94.00;;;12.37;64.21;100641.41;5034180;28;20412;-71
2022/05/29 06:26:15;;;;;;;7.17;2.53;;;12.20;91.70;;;12.39;64.67;100647.41;5036849;28;20795;-72
2022/05/29 06:28:44;;;;;;;7.43;3.37;;;12.20;92.60;;;12.36;64.68;100649.75;5019066;28;20815;-71
2022/05/29 06:31:13;;;;;;;9.73;4.27;;;12.10;91.90;;;12.60;63.84;100647.06;5037261;28;20464;-72
2022/05/29 06:33:44;;;;;;;3.00;2.17;;;12.30;91.10;;;12.64;63.61;100653.69;5036565;28;20456;-73
2022/05/29 06:36:16;;;;;;;3.10;2.03;;;12.30;88.10;;;12.93;63.61;100651.34;5019690;28;20437;-73
2022/05/29 06:38:46;;;;;;;7.73;2.53;;;12.40;91.70;;;12.92;63.08;100644.28;5013939;28;20406;-70
2022/05/29 06:41:19;;;;;;;4.63;2.30;;;12.50;84.50;;;13.19;62.56;100651.13;5013643;28;20445;-70
2022/05/29 06:43:50;;;;;;;2.30;1.53;;;12.70;86.60;;;13.23;61.86;100651.50;5013173;28;20417;-70
2022/05/29 06:46:20;;;;;;;6.20;2.23;;;12.80;77.70;;;13.35;61.79;100647.84;5013707;28;20439;-71
2022/05/29 06:48:51;;;;;;;7.53;2.60;;;12.80;78.80;;;13.73;60.58;100644.03;4996245;28;20468;-72
2022/05/29 06:51:23;;;;;;;5.17;2.47;;;13.10;71.20;;;14.04;60.25;100643.78;5005824;28;20476;-71
2022/05/29 06:53:55;;;;;;;2.50;1.70;;;13.30;70.30;;;14.46;59.36;100649.28;5014555;28;20809;-72
2022/05/29 06:56:25;;;;;;;3.90;1.90;;;13.60;67.20;;;14.74;57.48;100650.28;5032472;28;20755;-70
2022/05/29 06:58:55;;;;;;;4.07;2.17;;;14.00;53.90;;;14.73;57.58;100658.69;5033261;28;20428;-71
2022/05/29 07:07:19;;;;;;;8.40;1.87;;;14.00;47.80;;;14.74;56.70;100646.72;4967162;28;20455;-72
2022/05/29 07:09:49;;;;;;;5.23;2.03;;;14.10;43.80;;;14.76;57.16;100647.34;4989732;28;21037;-70
2022/05/29 07:12:23;;;;;;;12.10;7.50;;;14.10;45.80;;;14.16;57.62;100654.72;5008942;28;20502;-71
2022/05/29 07:14:56;;;;;;;7.40;5.53;;;14.00;41.40;;;14.19;58.97;100646.09;5013025;28;20440;-70
2022/05/29 07:17:27;;;;;;;2.37;2.13;;;13.90;45.80;;;14.19;58.16;100651.53;5031520;28;20490;-70
2022/05/29 07:19:57;;;;;;;9.33;3.20;;;13.80;45.50;;;13.84;59.10;100648.69;5032025;28;20821;-70
2022/05/29 07:22:29;;;;;;;10.60;2.03;;;13.60;44.90;;;13.63;59.51;100647.28;5031383;28;20448;-73
2022/05/29 07:24:58;;;;;;;9.70;2.00;;;13.50;46.50;;;13.67;59.25;100647.66;5013729;28;20494;-70
2022/05/29 07:27:27;;;;;;;2.33;2.03;;;13.40;47.30;;;13.48;58.40;100646.84;5031958;28;20438;-69
2022/05/29 07:29:55;;;;;;;4.70;3.23;;;13.40;41.90;;;14.01;58.28;100655.16;5013875;28;20808;-70
2022/05/29 07:32:24;;;;;;;3.20;2.20;;;13.60;44.50;;;14.64;56.00;100660.09;5013692;28;20547;-72
2022/05/29 07:34:54;;;;;;;4.47;3.10;;;14.00;41.40;;;15.03;55.31;100659.44;5013885;28;20475;-69
2022/05/29 07:37:24;;;;;;;2.90;2.40;;;14.30;37.50;;;15.35;54.13;100661.75;5031297;28;20899;-71
2022/05/29 07:39:55;;;;;;;5.83;2.07;;;14.50;34.50;;;15.50;53.41;100653.91;5012063;28;20807;-70
2022/05/29 07:45:11;;;;;;;2.87;1.43;;;14.90;27.50;;;15.14;52.74;100653.16;5014151;28;20416;-70
2022/05/29 07:47:44;;;;;;;3.33;2.20;;;14.80;25.80;;;14.90;53.49;100650.66;5013674;28;20428;-70
2022/05/29 07:50:16;;;;;;;3.10;1.67;;;14.60;25.90;;;15.06;53.58;100648.03;5030879;28;20428;-71
2022/05/29 07:52:50;;;;;;;2.03;1.40;;;14.70;26.50;;;14.75;54.27;100656.56;5031275;28;20587;-71
2022/05/29 07:55:20;;;;;;;3.77;1.60;;;14.40;26.80;;;14.70;55.60;100654.56;5031518;28;20485;-71
2022/05/29 07:57:49;;;;;;;6.73;2.20;;;14.40;29.20;;;14.59;57.18;100662.69;5031665;28;20919;-71
2022/05/29 08:00:22;;;;;;;4.30;2.17;;;14.30;32.60;;;14.72;59.40;100660.56;5032366;28;20791;-73
2022/05/29 08:02:51;;;;;;;2.23;1.70;;;14.40;40.50;;;14.74;59.03;100660.34;5031987;28;20768;-72
2022/05/29 08:05:21;;;;;;;6.90;2.23;;;14.20;42.90;;;14.60;58.99;100659.75;5013831;28;20422;-71
2022/05/29 08:07:53;;;;;;;2.50;1.87;;;14.20;42.80;;;14.53;60.26;100666.34;5031121;28;20466;-70
2022/05/29 08:10:25;;;;;;;4.90;2.20;;;14.10;49.40;;;14.66;59.54;100668.88;5030993;28;20899;-72
2022/05/29 08:12:54;;;;;;;3.37;1.73;;;14.20;50.60;;;14.75;60.78;100667.47;5029463;28;20423;-72
2022/05/29 08:15:23;;;;;;;2.47;1.53;;;14.20;55.90;;;15.21;60.21;100662.03;5030827;28;20427;-72
2022/05/29 08:17:53;;;;;;;4.10;2.00;;;14.50;58.40;;;15.69;56.52;100662.78;5030426;28;20428;-71
2022/05/29 08:20:22;;;;;;;6.93;2.10;;;15.00;42.90;;;16.22;55.86;100660.59;5013366;28;20458;-70
2022/05/29 08:22:53;;;;;;;7.23;2.20;;;15.30;44.20;;;16.70;54.07;100662.81;5030753;28;20534;-71
2022/05/29 08:30:55;;;;;;;5.27;2.77;;;16.00;33.60;;;17.16;52.04;100658.91;5030372;28;20543;-71
2022/05/29 08:33:27;;;;;;;4.93;2.13;;;16.10;29.50;;;17.26;49.68;100655.50;5012484;28;20444;-72
2022/05/29 08:36:02;;;;;;;6.67;2.20;;;16.30;24.30;;;17.37;49.93;100655.41;5029806;28;20821;-70
2022/05/29 08:38:34;;;;;;;2.90;1.80;;;16.60;23.20;;;17.11;50.53;100649.81;5012093;28;20440;-71
2022/05/29 08:41:06;;;;;;;3.13;2.00;;;16.60;21.70;;;17.28;49.75;100653.34;5012787;28;20827;-70
2022/05/29 08:43:38;;;;;;;4.90;1.90;;;16.80;21.10;;;17.51;48.19;100650.38;5030618;28;20439;-70
2022/05/29 08:46:15;;;;;;;4.90;1.50;;;16.90;18.30;;;17.49;47.60;100647.06;5030644;28;20413;-71
2022/05/29 08:48:47;;;;;;;5.73;1.43;;;17.00;15.70;;;17.62;48.22;100652.19;5030692;28;20460;-70
2022/05/29 08:51:48;;;;;;;1.57;1.17;;;16.80;16.90;;;17.53;47.54;100645.47;5031939;28;20502;-70
2022/05/29 08:54:29;;;;;;;5.70;2.20;;;16.80;16.80;;;18.00;47.17;100643.09;5011577;28;20605;-72
2022/05/29 08:57:15;;;;;;;3.53;1.63;;;17.20;15.80;;;18.67;44.94;100638.00;5004675;28;20448;-71
2022/05/29 08:59:52;;;;;;;4.17;1.50;;;17.70;13.20;;;18.56;44.68;100640.91;5030340;28;20486;-69
2022/05/29 09:02:40;;;;;;;4.10;2.13;;;17.70;11.30;;;18.23;46.33;100647.41;5030426;28;20443;-71
2022/05/29 09:05:19;;;;;;;2.30;1.43;;;17.50;13.10;;;17.40;48.95;100643.13;5030939;28;20410;-72
2022/05/29 09:07:50;;;;;;;4.17;1.80;;;17.10;14.30;;;17.10;48.75;100632.56;5024670;28;20715;-71
2022/05/29 09:10:34;;;;;;;1.93;1.20;;;16.70;14.80;;;16.87;49.49;100633.59;5031398;28;20442;-73
2022/05/29 09:13:11;;;;;;;2.10;1.57;;;16.40;15.40;;;16.76;50.14;100642.72;5033191;28;20424;-70
2022/05/29 09:15:45;;;;;;;4.90;1.90;;;16.20;16.20;;;16.71;49.98;100633.59;5034845;28;20768;-73
2022/05/29 09:18:21;;;;;;;2.97;1.47;;;16.10;15.90;;;15.96;51.23;100647.53;5034115;28;20858;-72
2022/05/29 09:20:59;;;;;;;5.10;1.80;;;15.70;16.30;;;15.84;52.20;100658.47;5033266;28;20556;-70
2022/05/29 09:23:34;;;;;;;4.67;2.40;;;15.50;18.20;;;15.90;53.33;100648.50;5015613;28;20413;-72
2022/05/29 09:26:11;;;;;;;3.87;1.90;;;15.40;20.40;;;16.08;53.51;100654.59;5033480;28;20438;-71
2022/05/29 09:28:43;;;;;;;7.90;2.03;;;15.60;21.50;;;16.28;52.41;100656.03;5014597;28;20460;-71
2022/05/29 09:31:18;;;;;;;3.70;1.93;;;15.70;20.50;;;16.27;52.12;100655.22;5032556;28;20481;-72
2022/05/29 09:33:49;;;;;;;3.43;1.30;;;15.70;19.90;;;16.68;52.02;100656.81;5016895;28;20814;-70
2022/05/29 09:36:26;;;;;;;1.27;1.00;;;16.00;20.60;;;17.02;49.67;100651.31;5034890;28;20478;-71
2022/05/29 09:39:03;;;;;;;5.13;1.57;;;16.30;17.60;;;16.90;50.53;100649.50;5035759;28;20408;-70
2022/05/29 09:41:41;;;;;;;2.10;1.47;;;16.40;18.10;;;16.74;50.53;100655.81;5038787;28;20923;-70
2022/05/29 09:44:14;;;;;;;3.00;1.40;;;16.40;16.80;;;16.90;48.41;100640.47;5037127;28;20407;-73
2022/05/29 09:46:45;;;;;;;2.47;1.80;;;16.30;14.90;;;16.59;49.13;100641.91;5023054;28;20789;-70
2022/05/29 09:52:14;;;;;;;4.83;2.27;;;16.00;17.10;;;15.41;56.26;100660.81;5029360;28;20436;-73
2022/05/29 09:54:51;;;;;;;4.53;1.40;;;15.60;22.40;;;14.91;57.89;100658.56;5034699;28;20426;-73
2022/05/29 09:57:30;;;;;;;3.00;2.10;;;15.10;25.70;;;14.61;59.40;100652.41;5035493;28;20428;-72
2022/05/29 10:00:06;;;;;;;3.43;1.60;;;14.60;29.70;;;14.48;60.92;100655.31;5025390;28;20489;-71
2022/05/29 10:02:40;;;;;;;3.53;2.40;;;14.30;36.40;;;14.32;60.88;100652.19;5036955;28;20452;-71
2022/05/29 10:05:23;;;;;;;4.93;2.20;;;14.10;42.40;;;14.18;61.43;100656.19;5036797;28;20407;-71
2022/05/29 10:07:56;;;;;;;7.30;2.33;;;14.10;46.60;;;14.26;61.89;100655.84;5021589;28;20432;-70
2022/05/29 10:10:35;;;;;;;12.27;6.60;;;14.00;52.20;;;14.51;62.99;100654.88;5034941;28;20490;-74
2022/05/29 10:13:06;;;;;;;5.63;2.30;;;14.00;72.20;;;14.68;60.11;100655.84;5034452;28;20431;-71
2022/05/29 10:15:42;;;;;;;3.70;3.00;;;14.10;57.60;;;14.88;59.84;100648.16;5034683;28;20957;-73
2022/05/29 10:18:33;;;;;;;3.27;2.00;;;14.30;54.20;;;15.31;58.94;100650.50;5035267;28;20434;-70
2022/05/29 10:21:16;;;;;;;2.90;1.47;;;14.60;54.40;;;15.39;56.09;100641.16;5033871;28;20969;-71
2022/05/29 10:23:52;;;;;;;2.93;1.23;;;14.70;40.70;;;15.79;55.28;100636.56;5034264;28;20438;-71
2022/05/29 10:26:35;;;;;;;3.30;2.00;;;15.20;38.10;;;16.03;53.18;100637.28;5026455;28;20433;-71
2022/05/29 10:29:20;;;;;;;1.40;1.00;;;15.30;30.50;;;16.77;50.20;100638.91;5034040;28;20399;-71
2022/05/29 10:31:52;;;;;;;1.53;0.97;;;16.10;24.60;;;16.72;48.11;100636.09;5005809;28;20460;-71
2022/05/29 10:34:28;;;;;;;1.40;0.80;;;16.40;17.80;;;16.29;47.90;100635.88;5021827;28;20533;-71
2022/05/29 10:36:58;;;;;;;4.20;0.60;;;16.30;14.80;;;16.45;49.22;100635.06;5027066;28;20483;-71
2022/05/29 10:39:34;;;;;;;1.53;0.87;;;16.20;16.20;;;16.98;46.52;100625.56;5006394;28;20856;-70
2022/05/29 10:42:05;;;;;;;1.40;0.90;;;16.40;13.00;;;17.63;42.99;100640.16;5022991;28;20474;-73
2022/05/29 10:44:46;;;;;;;1.00;0.70;;;17.10;9.00;;;17.83;44.34;100638.75;5030070;28;20824;-71
2022/05/29 10:47:35;;;;;;;1.87;1.30;;;17.30;9.30;;;17.70;45.08;100637.25;5031362;28;20446;-70
2022/05/29 10:50:15;;;;;;;3.33;0.90;;;17.40;9.80;;;17.35;45.76;100640.31;5022774;28;20452;-71
2022/05/29 10:53:14;;;;;;;1.40;0.70;;;17.00;10.10;;;17.96;44.21;100636.44;5029341;28;20457;-71
2022/05/29 10:55:58;;;;;;;1.70;0.77;;;17.30;8.70;;;18.29;43.92;100635.44;5033114;28;20448;-72
2022/05/29 10:59:07;;;;;;;2.90;1.33;;;17.70;8.30;;;18.09;44.71;100632.50;5032836;28;20505;-69
2022/05/29 11:05:10;;;;;;;1.50;1.13;;;18.00;6.40;;;18.76;42.15;100632.03;5021922;28;20430;-70
2022/05/29 11:07:55;;;;;;;2.43;1.30;;;18.10;5.70;;;18.88;41.70;100627.22;5025336;28;20399;-71
2022/05/29 11:10:54;;;;;;;1.97;0.90;;;18.40;4.30;;;19.19;40.73;100630.94;5016320;28;20441;-72
2022/05/29 11:13:56;;;;;;;1.80;1.00;;;18.50;3.70;;;19.15;39.79;100622.44;5025954;28;20457;-71
2022/05/29 11:16:40;;;;;;;1.63;1.07;;;18.80;1.90;;;18.95;41.02;100627.78;5024836;28;20446;-71